Time;durP1;ratioP1;P1;durP2;ratioP2;P2;SDS_P1;SDS_P2;PMS_P1;PMS_P2;Temp;Humidity;BMP_temperature;BMP_pressure;BME280_temperature;BME280_humidity;BME280_pressure;Samples;Min_cycle;Max_cycle;Signal;HPM_P1;HPM_P2
2022/06/10 00:01:22;;;;;;;12.25;3.40;;;;;;;12.55;75.72;102009.94;4755188;30;20129;-85
2022/06/10 00:03:47;;;;;;;9.30;3.30;;;;;;;12.54;75.38;102008.19;4745258;30;20370;-85
2022/06/10 00:06:14;;;;;;;9.70;3.22;;;;;;;12.53;76.59;102014.38;4752542;30;20276;-85
2022/06/10 00:08:46;;;;;;;8.32;3.08;;;;;;;12.52;77.72;102016.16;4762780;30;20046;-86
2022/06/10 00:11:12;;;;;;;14.30;3.30;;;;;;;12.47;76.26;102007.38;4770094;30;20122;-85
2022/06/10 00:13:41;;;;;;;11.60;3.75;;;;;;;12.44;76.52;102018.91;4746861;30;20513;-85
2022/06/10 00:16:08;;;;;;;11.10;2.80;;;;;;;12.43;75.70;102005.63;4769426;30;20040;-85
2022/06/10 00:18:34;;;;;;;14.43;3.33;;;;;;;12.41;76.65;102007.41;4755043;30;20480;-85
2022/06/10 00:21:01;;;;;;;11.77;3.10;;;;;;;12.44;75.81;102005.63;4786003;30;20047;-85
2022/06/10 00:23:27;;;;;;;14.70;3.03;;;;;;;12.43;75.62;102006.50;4786201;30;20082;-86
2022/06/10 00:25:53;;;;;;;13.68;3.42;;;;;;;12.42;75.75;102009.19;4761127;30;20063;-85
2022/06/10 00:28:19;;;;;;;10.32;3.13;;;;;;;12.43;75.74;102018.91;4786070;29;20055;-85
2022/06/10 00:30:45;;;;;;;14.55;3.63;;;;;;;12.39;75.43;102012.78;4766800;30;20447;-86
2022/06/10 00:33:12;;;;;;;18.48;3.20;;;;;;;12.38;76.53;102018.97;4752429;30;20151;-85
2022/06/10 00:35:38;;;;;;;10.30;2.92;;;;;;;12.35;75.71;102011.03;4751647;30;20058;-85
2022/06/10 00:38:04;;;;;;;16.08;3.38;;;;;;;12.33;75.79;102010.16;4748216;30;20060;-85
2022/06/10 00:40:34;;;;;;;11.60;3.10;;;;;;;12.30;75.90;102006.66;4746755;30;20079;-85
2022/06/10 00:43:00;;;;;;;7.47;3.03;;;;;;;12.32;76.55;102015.50;4785856;30;20113;-85
2022/06/10 00:45:50;;;;;;;13.05;3.08;;;;;;;12.33;75.99;102006.63;4785988;29;20044;-85
2022/06/10 00:48:22;;;;;;;16.90;3.20;;;;;;;12.32;76.51;102005.75;4766574;30;20060;-85
2022/06/10 00:50:49;;;;;;;12.98;2.60;;;;;;;12.34;76.57;102009.28;4770125;30;20516;-85
2022/06/10 00:53:19;;;;;;;13.65;3.10;;;;;;;12.32;77.20;101997.78;4785772;30;20135;-85
2022/06/10 00:55:46;;;;;;;11.05;2.78;;;;;;;12.37;76.67;102003.94;4780039;30;20055;-85
2022/06/10 00:58:40;;;;;;;9.88;2.95;;;;;;;12.41;76.28;102002.09;4764793;30;20151;-85
2022/06/10 01:01:07;;;;;;;9.35;3.00;;;;;;;12.40;76.00;101997.69;4748396;30;20066;-86
2022/06/10 01:03:33;;;;;;;10.98;2.80;;;;;;;12.42;75.99;101994.13;4743436;30;20135;-85
2022/06/10 01:05:58;;;;;;;15.90;3.50;;;;;;;12.44;77.40;101994.13;4766475;30;20507;-85
2022/06/10 01:08:24;;;;;;;12.90;3.40;;;;;;;12.43;77.21;101995.00;4768928;30;20055;-85
2022/06/10 01:11:21;;;;;;;12.00;3.13;;;;;;;12.47;76.66;102000.28;4770318;30;20047;-85
2022/06/10 01:14:17;;;;;;;11.23;3.53;;;;;;;12.51;76.28;102002.88;4766603;30;20146;-86
2022/06/10 01:16:57;;;;;;;8.50;2.90;;;;;;;12.54;77.00;102001.09;4788822;29;20050;-85
2022/06/10 01:19:34;;;;;;;11.00;3.40;;;;;;;12.58;77.28;102000.13;4772687;30;20188;-85
2022/06/10 01:22:18;;;;;;;13.65;3.47;;;;;;;12.65;77.04;102003.63;4768679;30;20047;-85
2022/06/10 01:24:58;;;;;;;14.02;3.20;;;;;;;12.70;77.65;102001.78;4757483;30;20071;-85
2022/06/10 01:27:55;;;;;;;14.40;3.53;;;;;;;12.76;76.72;102001.72;4743007;30;20484;-86
2022/06/10 01:30:20;;;;;;;10.35;2.97;;;;;;;12.80;77.16;101997.22;4769810;30;20305;-86
2022/06/10 01:32:52;;;;;;;16.98;3.28;;;;;;;12.83;77.25;101998.09;4777536;30;20056;-78
2022/06/10 01:35:25;;;;;;;15.65;3.10;;;;;;;12.85;78.34;101998.91;4754704;30;20040;-78
2022/06/10 01:38:15;;;;;;;13.75;3.38;;;;;;;12.90;77.16;101997.06;4764634;30;20108;-78
2022/06/10 01:41:00;;;;;;;15.80;3.13;;;;;;;12.93;77.42;102004.13;4749161;30;20548;-78
2022/06/10 01:43:28;;;;;;;14.43;2.88;;;;;;;12.98;77.58;101999.66;4770887;30;20066;-78
2022/06/10 01:46:11;;;;;;;13.02;3.53;;;;;;;13.02;76.55;102000.50;4777563;29;20047;-77
2022/06/10 01:48:50;;;;;;;13.48;3.53;;;;;;;13.06;76.93;101995.13;4757492;30;20060;-78
2022/06/10 01:51:30;;;;;;;13.45;3.10;;;;;;;13.09;77.07;101997.72;4773738;29;20063;-77
2022/06/10 01:54:07;;;;;;;15.03;3.10;;;;;;;13.11;76.72;101998.59;4765948;30;20040;-77
2022/06/10 01:56:39;;;;;;;14.30;3.60;;;;;;;13.12;77.93;101997.66;4764751;30;20296;-78
2022/06/10 01:59:22;;;;;;;14.85;3.30;;;;;;;13.18;77.28;101998.47;4759387;30;20462;-78
2022/06/10 02:01:59;;;;;;;11.15;3.25;;;;;;;13.18;77.15;101996.72;4776575;30;20043;-77
2022/06/10 02:04:34;;;;;;;19.70;3.50;;;;;;;13.21;77.13;102002.00;4754196;30;20480;-78
2022/06/10 02:07:09;;;;;;;14.88;3.60;;;;;;;13.24;76.35;102001.94;4753925;30;20075;-78
2022/06/10 02:09:42;;;;;;;12.32;3.10;;;;;;;13.28;76.82;102002.84;4763240;30;20051;-78
2022/06/10 02:12:38;;;;;;;10.88;3.05;;;;;;;13.30;77.38;101993.94;4751053;30;20433;-77
2022/06/10 02:15:11;;;;;;;16.48;3.58;;;;;;;13.32;77.16;102004.53;4746907;30;20151;-78
2022/06/10 02:17:49;;;;;;;11.23;3.03;;;;;;;13.33;75.85;102006.31;4755998;30;20071;-78
2022/06/10 02:20:23;;;;;;;12.52;3.53;;;;;;;13.36;76.73;102006.25;4770151;30;20051;-77
2022/06/10 02:22:49;;;;;;;18.23;3.53;;;;;;;13.37;77.04;102005.34;4769099;30;20044;-77
2022/06/10 02:25:18;;;;;;;11.20;2.75;;;;;;;13.38;77.31;102004.44;4771469;30;20364;-77
2022/06/10 02:27:51;;;;;;;14.02;3.72;;;;;;;13.41;76.67;102000.88;4787553;30;20043;-77
2022/06/10 02:30:25;;;;;;;15.43;3.15;;;;;;;13.42;76.77;102006.13;4759109;30;20588;-77
2022/06/10 02:32:51;;;;;;;18.10;3.45;;;;;;;13.44;76.46;102014.13;4763017;30;20117;-77
2022/06/10 02:35:17;;;;;;;11.38;2.80;;;;;;;13.47;75.85;102014.06;4767504;29;20055;-77
2022/06/10 02:37:59;;;;;;;15.10;3.15;;;;;;;13.48;76.92;102018.50;4771310;30;20476;-77
2022/06/10 02:40:30;;;;;;;13.02;2.85;;;;;;;13.48;76.16;102018.50;4771343;30;20134;-77
2022/06/10 02:43:12;;;;;;;12.60;3.17;;;;;;;13.51;76.14;102021.09;4787709;29;20051;-77
2022/06/10 02:45:56;;;;;;;10.10;2.85;;;;;;;13.50;76.55;102004.25;4756166;30;20157;-77
2022/06/10 02:48:50;;;;;;;12.57;2.90;;;;;;;13.51;77.20;102008.66;4776799;29;20052;-76
2022/06/10 02:51:16;;;;;;;7.93;2.42;;;;;;;13.54;76.23;102008.63;4771316;30;20055;-77
2022/06/10 02:53:42;;;;;;;13.63;2.97;;;;;;;13.55;76.52;102013.06;4768399;30;20078;-77
2022/06/10 02:56:19;;;;;;;13.27;3.05;;;;;;;13.57;76.66;102004.16;4786229;29;20035;-77
2022/06/10 03:01:50;;;;;;;10.90;3.10;;;;;;;13.60;76.11;102017.41;4733683;30;20061;-80
2022/06/10 03:04:24;;;;;;;11.73;2.88;;;;;;;13.61;76.79;102013.84;4763727;30;20404;-80
2022/06/10 03:07:11;;;;;;;10.35;2.80;;;;;;;13.63;77.29;102018.25;4785223;30;20109;-80
2022/06/10 03:09:58;;;;;;;12.25;3.42;;;;;;;13.67;76.83;102016.41;4787035;29;20053;-80
2022/06/10 03:12:37;;;;;;;9.63;3.10;;;;;;;13.70;77.28;102027.91;4786999;29;20058;-80
2022/06/10 03:15:21;;;;;;;13.93;2.88;;;;;;;13.74;76.92;102034.03;4770775;30;20051;-80
2022/06/10 03:18:33;;;;;;;10.10;2.78;;;;;;;13.76;76.72;102034.91;4755534;30;20472;-79
2022/06/10 03:21:16;;;;;;;18.58;2.90;;;;;;;13.79;77.47;102032.19;4735553;30;20060;-80
2022/06/10 03:24:05;;;;;;;8.43;2.60;;;;;;;13.84;77.36;102043.63;4739973;30;20047;-79
2022/06/10 03:26:49;;;;;;;11.30;3.10;;;;;;;13.90;77.12;102048.00;4773511;30;20047;-79
2022/06/10 03:29:23;;;;;;;11.15;2.10;;;;;;;13.91;77.72;102044.44;4770507;29;20070;-79
2022/06/10 03:31:53;;;;;;;13.45;3.22;;;;;;;13.90;78.22;102035.56;4786542;30;20047;-79
2022/06/10 03:34:34;;;;;;;6.82;2.63;;;;;;;13.91;78.29;102039.09;4754891;30;20118;-80
2022/06/10 03:37:02;;;;;;;13.27;2.72;;;;;;;13.92;79.16;102032.84;4770105;30;20085;-80
2022/06/10 03:39:28;;;;;;;12.98;2.80;;;;;;;13.92;78.45;102028.44;4770217;30;20134;-79
2022/06/10 03:42:09;;;;;;;11.40;2.90;;;;;;;13.95;78.56;102035.50;4773700;30;20047;-79
2022/06/10 03:44:35;;;;;;;;;;;;;;;13.98;78.20;102028.31;4775922;30;20055;-80
2022/06/10 03:47:04;;;;;;;15.48;2.60;;;;;;;13.94;78.77;102028.38;4769557;30;20422;-79
2022/06/10 03:49:39;;;;;;;8.60;2.40;;;;;;;13.96;78.75;102029.25;4766435;30;20048;-79
2022/06/10 03:52:05;;;;;;;13.48;2.90;;;;;;;13.96;78.76;102032.78;4752231;30;20071;-79
2022/06/10 03:54:31;;;;;;;11.38;2.58;;;;;;;13.95;79.02;102025.72;4782107;29;20046;-79
2022/06/10 03:56:56;;;;;;;10.07;2.80;;;;;;;13.96;79.58;102039.91;4770207;30;20075;-79
2022/06/10 03:59:22;;;;;;;11.20;2.83;;;;;;;14.00;79.40;102048.75;4770278;30;20545;-79
2022/06/10 04:01:47;;;;;;;12.75;2.67;;;;;;;13.99;79.64;102047.84;4786234;30;20583;-79
2022/06/10 04:04:13;;;;;;;10.25;2.75;;;;;;;14.02;79.47;102054.88;4755193;30;20092;-79
2022/06/10 04:06:39;;;;;;;11.50;2.60;;;;;;;14.04;80.29;102053.09;4768105;30;20063;-79
2022/06/10 04:09:05;;;;;;;12.60;2.58;;;;;;;14.02;80.82;102057.56;4785972;29;20189;-80
2022/06/10 04:11:30;;;;;;;14.18;2.50;;;;;;;14.03;80.77;102056.66;4786187;30;20050;-81
2022/06/10 04:13:56;;;;;;;10.30;2.83;;;;;;;14.03;80.98;102062.00;4754909;30;20047;-81
2022/06/10 04:16:21;;;;;;;11.55;2.45;;;;;;;14.02;80.67;102060.22;4755006;30;20091;-81
2022/06/10 04:18:47;;;;;;;8.10;2.50;;;;;;;14.04;80.38;102061.06;4785958;29;20484;-80
2022/06/10 04:21:12;;;;;;;14.00;2.88;;;;;;;14.06;80.74;102067.25;4769883;30;20108;-81
2022/06/10 04:23:38;;;;;;;9.30;2.58;;;;;;;14.06;81.06;102068.13;4757290;29;20043;-81
2022/06/10 04:26:03;;;;;;;16.40;2.78;;;;;;;14.09;81.21;102070.75;4733616;30;20295;-81
2022/06/10 04:28:29;;;;;;;11.75;2.65;;;;;;;14.09;80.94;102069.88;4785912;29;20124;-81
2022/06/10 04:30:55;;;;;;;8.15;2.33;;;;;;;14.09;81.54;102075.19;4763223;30;20597;-81
2022/06/10 04:33:21;;;;;;;12.65;3.13;;;;;;;14.08;80.58;102069.00;4752089;30;20048;-81
2022/06/10 04:35:49;;;;;;;11.80;2.53;;;;;;;14.09;82.01;102062.75;4769399;30;20059;-81
2022/06/10 04:38:17;;;;;;;12.95;2.58;;;;;;;14.12;82.80;102059.16;4769996;29;20160;-81
2022/06/10 04:40:43;;;;;;;14.35;2.75;;;;;;;14.15;81.77;102070.66;4785848;30;20035;-81
2022/06/10 04:43:09;;;;;;;8.70;2.50;;;;;;;14.19;81.52;102059.03;4785870;30;20066;-81
2022/06/10 04:45:44;;;;;;;12.70;3.05;;;;;;;14.22;82.31;102059.88;4784177;29;20138;-81
2022/06/10 04:48:11;;;;;;;16.85;2.80;;;;;;;14.24;81.51;102061.59;4755360;30;20064;-81
2022/06/10 04:50:37;;;;;;;10.60;2.85;;;;;;;14.24;81.50;102058.94;4760327;30;20452;-80
2022/06/10 04:53:02;;;;;;;12.50;3.67;;;;;;;14.24;81.76;102058.06;4773238;30;20063;-81
2022/06/10 04:55:28;;;;;;;14.23;2.88;;;;;;;14.28;82.08;102058.00;4769037;30;20130;-81
2022/06/10 04:57:55;;;;;;;11.00;2.65;;;;;;;14.33;81.90;102061.44;4789049;30;20051;-81
2022/06/10 05:00:27;;;;;;;16.85;2.90;;;;;;;14.37;82.39;102062.28;4789394;29;20062;-81
2022/06/10 05:02:53;;;;;;;13.55;3.05;;;;;;;14.38;82.07;102064.03;4772901;30;20059;-82
2022/06/10 05:05:20;;;;;;;12.63;2.95;;;;;;;14.39;81.25;102057.78;4789062;29;20046;-81
2022/06/10 05:07:45;;;;;;;10.73;2.65;;;;;;;14.37;80.71;102052.50;4770864;30;20055;-81
2022/06/10 05:10:13;;;;;;;10.80;2.67;;;;;;;14.44;79.60;102058.59;4772989;30;20210;-81
2022/06/10 05:12:38;;;;;;;6.57;2.08;;;;;;;14.48;80.52;102056.75;4772752;30;20042;-81
2022/06/10 05:15:04;;;;;;;11.32;2.30;;;;;;;14.49;80.78;102063.81;4772691;30;20408;-81
2022/06/10 05:17:30;;;;;;;14.07;2.72;;;;;;;14.52;80.11;102053.13;4772717;30;20508;-81
2022/06/10 05:19:55;;;;;;;16.75;3.20;;;;;;;14.55;80.03;102055.75;4755819;30;20059;-81
2022/06/10 05:22:21;;;;;;;15.93;2.92;;;;;;;14.54;79.40;102049.56;4774443;30;20496;-81
2022/06/10 05:24:46;;;;;;;15.57;3.40;;;;;;;14.58;78.65;102048.56;4737299;30;20485;-81
2022/06/10 05:27:12;;;;;;;12.07;3.50;;;;;;;14.64;79.38;102039.59;4756897;30;20087;-81
2022/06/10 05:29:37;;;;;;;13.68;2.83;;;;;;;14.67;79.16;102042.19;4743587;30;20120;-81
2022/06/10 05:32:04;;;;;;;15.05;3.40;;;;;;;14.73;78.75;102044.72;4742234;30;20086;-81
2022/06/10 05:34:45;;;;;;;16.40;3.13;;;;;;;14.76;79.31;102035.78;4788752;30;20039;-82
2022/06/10 05:37:11;;;;;;;;;;;;;;;14.86;78.20;102049.81;4770138;30;20048;-81
2022/06/10 05:39:37;;;;;;;14.02;3.00;;;;;;;14.86;78.60;102048.06;4763019;30;20274;-81
2022/06/10 05:42:06;;;;;;;16.08;3.22;;;;;;;14.93;78.41;102048.78;4772377;30;20078;-81
2022/06/10 05:44:43;;;;;;;10.40;2.70;;;;;;;14.92;78.73;102047.03;4751428;30;20052;-82
2022/06/10 05:47:12;;;;;;;12.52;2.95;;;;;;;14.96;78.57;102049.63;4771184;30;20147;-82
2022/06/10 05:49:41;;;;;;;15.65;3.08;;;;;;;14.99;78.95;102049.53;4758008;30;20524;-81
2022/06/10 05:52:10;;;;;;;14.63;2.78;;;;;;;15.05;78.16;102053.84;4776492;29;20051;-81
2022/06/10 05:54:37;;;;;;;10.40;2.60;;;;;;;15.09;77.77;102049.34;4753129;30;20047;-81
2022/06/10 05:57:03;;;;;;;14.00;3.03;;;;;;;15.13;78.23;102046.56;4756630;30;20420;-81
2022/06/10 05:59:29;;;;;;;6.70;2.65;;;;;;;15.23;78.44;102060.59;4738203;30;20047;-81
2022/06/10 06:01:56;;;;;;;8.85;2.63;;;;;;;15.33;78.75;102045.25;4770500;30;20048;-81
2022/06/10 06:04:22;;;;;;;11.85;2.70;;;;;;;15.46;77.63;102052.09;4766744;30;20067;-81
2022/06/10 06:06:48;;;;;;;9.85;2.70;;;;;;;15.59;77.82;102058.88;4762033;30;20059;-81
2022/06/10 06:09:14;;;;;;;13.55;2.90;;;;;;;15.69;77.02;102048.88;4771258;30;20119;-81
2022/06/10 06:11:41;;;;;;;19.40;3.33;;;;;;;15.76;77.33;102058.53;4760474;30;20420;-80
2022/06/10 06:14:07;;;;;;;13.07;3.10;;;;;;;15.82;77.11;102066.38;4788248;29;20500;-80
2022/06/10 06:16:33;;;;;;;19.98;2.80;;;;;;;15.85;76.97;102058.31;4772064;30;20048;-81
2022/06/10 06:18:58;;;;;;;11.75;2.47;;;;;;;15.87;76.39;102067.16;4757206;30;20462;-81
2022/06/10 06:21:24;;;;;;;18.63;3.10;;;;;;;15.91;77.22;102066.16;4787940;30;20282;-81
2022/06/10 06:23:49;;;;;;;20.02;3.13;;;;;;;15.96;76.27;102059.84;4738404;30;20083;-81
2022/06/10 06:26:15;;;;;;;11.18;2.55;;;;;;;15.96;76.24;102063.38;4755989;30;20044;-81
2022/06/10 06:28:42;;;;;;;13.30;2.60;;;;;;;16.00;75.92;102064.16;4759076;29;20480;-80
2022/06/10 06:31:08;;;;;;;14.27;2.35;;;;;;;16.01;75.22;102065.94;4771704;30;20040;-80
2022/06/10 06:33:34;;;;;;;8.23;2.30;;;;;;;16.06;75.90;102072.03;4771714;30;20168;-80
2022/06/10 06:35:59;;;;;;;13.13;2.80;;;;;;;16.11;76.68;102067.47;4756889;30;20138;-80
2022/06/10 06:38:26;;;;;;;11.07;2.50;;;;;;;16.11;75.46;102070.13;4787849;30;20055;-81
2022/06/10 06:40:52;;;;;;;13.80;3.05;;;;;;;16.17;74.70;102069.09;4787622;30;20035;-80
2022/06/10 06:43:18;;;;;;;14.07;2.45;;;;;;;16.18;75.31;102068.19;4746381;30;20063;-80
2022/06/10 06:45:44;;;;;;;13.00;2.47;;;;;;;16.21;75.00;102073.44;4754356;30;20047;-80
2022/06/10 06:48:11;;;;;;;12.32;2.78;;;;;;;16.27;75.44;102079.53;4747709;30;20048;-80
2022/06/10 06:50:42;;;;;;;13.75;2.53;;;;;;;16.31;74.65;102074.97;4758119;30;20139;-78
2022/06/10 06:53:07;;;;;;;10.15;2.63;;;;;;;16.34;73.69;102077.53;4771380;30;20066;-78
2022/06/10 06:55:38;;;;;;;11.45;2.42;;;;;;;16.35;74.19;102082.00;4782601;30;20496;-78
2022/06/10 06:58:05;;;;;;;9.45;2.30;;;;;;;16.34;73.68;102082.88;4747247;30;20052;-77
2022/06/10 07:00:31;;;;;;;12.68;2.63;;;;;;;16.36;73.90;102083.72;4750384;30;20047;-78
2022/06/10 07:02:56;;;;;;;7.32;2.20;;;;;;;16.40;73.92;102087.22;4770370;30;20476;-77
2022/06/10 07:05:22;;;;;;;7.13;2.38;;;;;;;16.44;74.08;102081.72;4756196;30;20055;-78
2022/06/10 07:07:47;;;;;;;9.05;2.10;;;;;;;16.53;73.61;102086.84;4768146;30;20039;-78
2022/06/10 07:10:16;;;;;;;10.48;2.33;;;;;;;16.60;72.91;102086.69;4741334;30;20419;-78
2022/06/10 07:12:41;;;;;;;7.72;1.98;;;;;;;16.67;73.58;102088.28;4770568;30;20043;-79
2022/06/10 07:15:07;;;;;;;10.02;2.30;;;;;;;16.68;72.46;102079.31;4764632;30;20488;-78
2022/06/10 07:17:33;;;;;;;9.25;1.90;;;;;;;16.73;72.11;102075.59;4764638;30;20062;-78
2022/06/10 07:20:00;;;;;;;11.10;2.28;;;;;;;16.83;74.30;102078.03;4786942;29;20368;-79
2022/06/10 07:22:26;;;;;;;8.40;1.92;;;;;;;16.91;72.10;102079.59;4770681;30;20082;-79
2022/06/10 07:24:53;;;;;;;11.38;2.45;;;;;;;17.04;71.95;102079.25;4780199;30;20510;-79
2022/06/10 07:27:19;;;;;;;14.27;2.30;;;;;;;17.14;71.42;102076.25;4786646;30;20039;-78
2022/06/10 07:29:45;;;;;;;10.77;2.15;;;;;;;17.21;71.74;102074.28;4770683;30;20141;-78
2022/06/10 07:32:10;;;;;;;6.90;1.98;;;;;;;17.28;70.94;102073.13;4755812;30;20555;-78
2022/06/10 07:34:36;;;;;;;9.00;2.35;;;;;;;17.37;70.24;102077.34;4747107;30;20040;-78
2022/06/10 07:37:02;;;;;;;9.95;2.05;;;;;;;17.45;69.74;102082.47;4751725;30;20044;-79
2022/06/10 07:39:27;;;;;;;9.43;1.92;;;;;;;17.51;69.83;102079.63;4748676;30;20054;-78
2022/06/10 07:42:02;;;;;;;13.73;2.50;;;;;;;17.52;69.10;102087.59;4750224;30;20101;-78
2022/06/10 07:44:34;;;;;;;7.95;2.20;;;;;;;17.57;68.88;102092.78;4758797;30;20070;-78
2022/06/10 07:47:02;;;;;;;9.00;2.10;;;;;;;17.57;68.79;102082.94;4769753;30;20191;-78
2022/06/10 07:49:28;;;;;;;9.05;2.20;;;;;;;17.57;69.91;102080.28;4754879;30;20527;-78
2022/06/10 07:51:53;;;;;;;11.02;2.20;;;;;;;17.65;68.38;102081.84;4734094;30;20058;-78
2022/06/10 07:54:19;;;;;;;12.07;2.20;;;;;;;17.69;69.24;102078.16;4750787;30;20058;-78
2022/06/10 07:56:45;;;;;;;12.02;2.45;;;;;;;17.75;69.33;102072.56;4770415;30;20052;-78
2022/06/10 07:59:12;;;;;;;8.10;2.03;;;;;;;17.85;67.73;102079.41;4768247;30;20504;-78
2022/06/10 08:01:37;;;;;;;8.38;2.00;;;;;;;17.87;68.62;102080.25;4759953;30;20131;-78
2022/06/10 08:04:06;;;;;;;8.30;1.98;;;;;;;17.92;68.47;102082.78;4786173;30;20047;-78
2022/06/10 08:06:34;;;;;;;14.27;2.08;;;;;;;17.97;66.63;102084.38;4767072;30;20031;-78
2022/06/10 08:09:01;;;;;;;13.80;2.20;;;;;;;18.02;67.46;102084.22;4786379;30;20059;-78
2022/06/10 08:11:27;;;;;;;9.88;2.08;;;;;;;18.13;67.98;102089.25;4755346;30;20329;-79
2022/06/10 08:13:53;;;;;;;12.73;2.65;;;;;;;18.25;68.14;102083.47;4745346;30;20073;-78
2022/06/10 08:16:18;;;;;;;8.85;2.00;;;;;;;18.27;66.70;102082.50;4783719;30;20043;-78
2022/06/10 08:18:45;;;;;;;10.07;2.00;;;;;;;18.30;66.76;102083.28;4762054;30;20427;-77
2022/06/10 08:23:56;;;;;;;9.55;2.05;;;;;;;18.45;65.97;102089.03;4747542;30;20466;-78
2022/06/10 08:26:22;;;;;;;9.88;2.20;;;;;;;18.41;65.05;102090.03;4748260;30;20054;-77
2022/06/10 08:28:49;;;;;;;10.57;2.00;;;;;;;18.50;65.66;102088.00;4786311;29;20059;-78
2022/06/10 08:31:15;;;;;;;13.60;2.67;;;;;;;18.48;64.15;102086.22;4755232;30;20054;-77
2022/06/10 08:33:41;;;;;;;10.90;1.88;;;;;;;18.53;65.17;102091.44;4769772;29;20484;-77
2022/06/10 08:36:08;;;;;;;7.68;2.25;;;;;;;18.53;64.21;102088.75;4786073;30;20134;-76
2022/06/10 08:38:34;;;;;;;8.98;2.10;;;;;;;18.58;64.14;102094.81;4757058;30;20058;-76
2022/06/10 08:41:19;;;;;;;8.70;2.00;;;;;;;18.63;64.08;102083.94;4737518;30;20257;-76
2022/06/10 08:44:06;;;;;;;10.60;2.45;;;;;;;18.73;63.93;102095.22;4765375;30;20063;-76
2022/06/10 08:47:09;;;;;;;12.93;2.60;;;;;;;18.69;63.84;102086.38;4769725;29;20550;-77
2022/06/10 08:50:12;;;;;;;13.15;3.25;;;;;;;18.83;63.98;102089.47;4770294;30;20134;-76
2022/06/10 08:53:02;;;;;;;11.70;2.90;;;;;;;19.02;64.46;102086.13;4764670;30;20051;-76
2022/06/10 08:55:47;;;;;;;13.00;3.60;;;;;;;19.09;62.36;102083.16;4764063;30;20459;-77
2022/06/10 08:58:28;;;;;;;11.80;2.67;;;;;;;19.10;63.21;102078.66;4756070;30;20055;-77
2022/06/10 09:00:58;;;;;;;11.05;2.83;;;;;;;19.09;62.08;102079.59;4769887;30;20072;-76
2022/06/10 09:03:33;;;;;;;17.05;2.92;;;;;;;19.10;62.57;102082.22;4769592;30;20150;-76
2022/06/10 09:06:04;;;;;;;10.43;3.33;;;;;;;19.39;61.43;102071.28;4782439;29;20044;-76
2022/06/10 09:08:38;;;;;;;;;;;;;;;19.67;59.99;102073.75;4786314;29;20047;-76
2022/06/10 09:11:19;;;;;;;11.02;3.35;;;;;;;19.94;60.25;102079.84;4769347;29;19917;-76
2022/06/10 09:13:54;;;;;;;12.48;2.97;;;;;;;20.12;59.58;102070.13;4760596;30;20408;-77
2022/06/10 09:16:31;;;;;;;15.30;3.00;;;;;;;20.28;59.34;102078.44;4783396;30;20039;-77
2022/06/10 09:19:00;;;;;;;11.27;2.88;;;;;;;20.36;58.78;102079.84;4759693;30;20453;-76
2022/06/10 09:21:42;;;;;;;14.50;2.78;;;;;;;20.47;57.76;102081.19;4770441;30;20130;-76
2022/06/10 09:24:27;;;;;;;12.68;2.65;;;;;;;20.40;58.11;102078.78;4761152;29;20070;-76
2022/06/10 09:27:04;;;;;;;10.35;2.53;;;;;;;20.32;57.55;102078.19;4766334;30;20492;-77
2022/06/10 09:29:30;;;;;;;16.52;2.88;;;;;;;20.40;57.58;102081.47;4785528;30;20047;-76
2022/06/10 09:32:01;;;;;;;17.70;3.03;;;;;;;20.46;58.23;102074.94;4769282;30;20112;-76
2022/06/10 09:35:06;;;;;;;15.43;2.90;;;;;;;20.53;58.15;102071.03;4780910;30;20052;-76
2022/06/10 09:37:59;;;;;;;12.27;2.65;;;;;;;20.73;57.84;102072.88;4788440;30;20061;-77
2022/06/10 09:40:38;;;;;;;13.90;2.60;;;;;;;20.88;58.53;102070.44;4772443;29;20047;-77
2022/06/10 09:43:26;;;;;;;13.52;2.78;;;;;;;21.13;58.27;102067.47;4788603;30;20066;-76
2022/06/10 09:46:13;;;;;;;10.07;2.42;;;;;;;21.18;57.34;102073.50;4784397;29;20047;-76
2022/06/10 09:48:51;;;;;;;13.50;3.05;;;;;;;21.12;55.92;102076.50;4752888;30;20064;-77
2022/06/10 09:51:16;;;;;;;15.02;3.20;;;;;;;20.95;56.64;102079.97;4774411;29;20446;-76
2022/06/10 09:53:51;;;;;;;12.88;2.92;;;;;;;20.90;57.54;102077.50;4768014;30;20119;-76
2022/06/10 09:56:30;;;;;;;11.48;3.42;;;;;;;20.89;57.52;102069.47;4754210;30;20158;-76
2022/06/10 09:58:55;;;;;;;10.93;2.85;;;;;;;20.70;58.16;102082.91;4761637;30;20051;-76
2022/06/10 10:01:29;;;;;;;13.55;4.03;;;;;;;20.67;57.58;102072.25;4763425;30;20456;-76
2022/06/10 10:04:20;;;;;;;13.63;2.70;;;;;;;20.77;58.09;102077.19;4760607;30;20097;-76
2022/06/10 10:07:00;;;;;;;8.95;2.90;;;;;;;20.83;59.14;102076.00;4769508;30;20055;-76
2022/06/10 10:09:48;;;;;;;12.73;3.10;;;;;;;20.95;58.85;102078.16;4769698;30;20051;-76
2022/06/10 10:12:31;;;;;;;12.05;3.15;;;;;;;21.09;58.00;102084.72;4764450;30;20047;-77
2022/06/10 10:15:15;;;;;;;11.23;2.90;;;;;;;21.04;58.01;102083.13;4763054;30;20085;-76
2022/06/10 10:17:47;;;;;;;17.73;4.00;;;;;;;20.91;57.67;102081.06;4775018;30;20056;-76
2022/06/10 10:20:52;;;;;;;14.43;3.63;;;;;;;20.92;59.43;102072.00;4771929;30;20079;-76
2022/06/10 10:23:28;;;;;;;14.45;3.40;;;;;;;21.10;59.29;102076.56;4729908;30;20489;-76
2022/06/10 10:25:54;;;;;;;9.73;2.97;;;;;;;21.33;58.82;102080.00;4757978;30;20082;-76
2022/06/10 10:28:23;;;;;;;15.27;3.22;;;;;;;21.70;58.79;102076.44;4771557;29;20126;-76
2022/06/10 10:31:13;;;;;;;11.15;3.00;;;;;;;21.97;55.57;102070.63;4765800;30;20067;-76
2022/06/10 10:33:40;;;;;;;14.53;2.93;;;;;;;22.12;55.97;102068.00;4784205;30;20462;-76
2022/06/10 10:36:16;;;;;;;13.50;2.95;;;;;;;22.10;56.67;102069.03;4787685;29;20046;-76
2022/06/10 10:38:45;;;;;;;13.65;3.20;;;;;;;22.16;57.75;102074.16;4787514;30;20047;-77
2022/06/10 10:41:12;;;;;;;12.38;3.72;;;;;;;22.01;55.02;102080.31;4787654;29;20100;-76
2022/06/10 10:43:38;;;;;;;11.88;3.15;;;;;;;21.99;55.87;102071.44;4770683;30;20114;-76
2022/06/10 10:46:23;;;;;;;17.42;3.15;;;;;;;21.96;56.09;102068.84;4738967;30;20105;-77
2022/06/10 10:48:49;;;;;;;11.55;2.88;;;;;;;22.04;56.52;102066.66;4768703;29;20143;-76
2022/06/10 10:51:22;;;;;;;18.25;4.03;;;;;;;22.54;57.19;102068.59;4755135;30;20162;-76
2022/06/10 10:53:55;;;;;;;17.52;3.90;;;;;;;22.71;54.88;102073.97;4776457;30;20063;-77
2022/06/10 10:56:31;;;;;;;12.63;3.45;;;;;;;22.70;55.43;102072.25;4765057;30;20150;-76
2022/06/10 10:58:57;;;;;;;18.27;3.55;;;;;;;22.60;54.60;102065.59;4781805;30;20454;-76
2022/06/10 11:01:46;;;;;;;14.30;3.42;;;;;;;22.47;55.69;102070.75;4775392;30;20055;-76
2022/06/10 11:04:31;;;;;;;14.23;3.03;;;;;;;22.38;55.97;102073.03;4785763;29;20055;-77
2022/06/10 11:07:02;;;;;;;11.68;3.38;;;;;;;22.25;55.99;102064.72;4752978;30;20130;-76
2022/06/10 11:09:28;;;;;;;12.98;3.33;;;;;;;22.22;55.87;102063.06;4784307;30;20473;-76
2022/06/10 11:11:56;;;;;;;13.52;3.70;;;;;;;22.21;56.25;102055.94;4786916;29;20047;-77
2022/06/10 11:14:33;;;;;;;15.68;3.47;;;;;;;22.20;57.18;102064.09;4756120;30;20128;-76
2022/06/10 11:17:02;;;;;;;19.58;3.97;;;;;;;22.29;56.34;102067.19;4763019;30;20063;-76
2022/06/10 11:19:34;;;;;;;13.32;3.22;;;;;;;22.35;55.49;102059.72;4766399;30;20106;-76
2022/06/10 11:22:02;;;;;;;15.38;3.20;;;;;;;22.63;57.25;102057.31;4766911;30;20101;-76
2022/06/10 11:24:43;;;;;;;11.98;3.00;;;;;;;22.81;56.31;102068.97;4755328;30;20555;-76
2022/06/10 11:27:23;;;;;;;18.15;3.08;;;;;;;22.86;54.09;102063.31;4767811;30;20523;-77
2022/06/10 11:30:18;;;;;;;13.15;3.53;;;;;;;22.61;54.47;102064.63;4786770;29;20047;-76
2022/06/10 11:32:50;;;;;;;9.98;2.50;;;;;;;22.55;55.37;102059.53;4748094;30;20142;-76
2022/06/10 11:35:28;;;;;;;18.90;2.90;;;;;;;22.68;54.69;102065.19;4770371;30;20047;-77
2022/06/10 11:37:58;;;;;;;11.02;2.95;;;;;;;22.64;55.70;102063.59;4786494;29;20054;-76
2022/06/10 11:40:26;;;;;;;14.88;2.78;;;;;;;22.53;53.84;102058.78;4786424;30;20051;-76
2022/06/10 11:43:15;;;;;;;12.63;2.90;;;;;;;22.65;54.17;102049.13;4763348;30;20048;-76
2022/06/10 11:45:47;;;;;;;12.68;2.83;;;;;;;23.07;55.16;102058.59;4771282;30;20048;-76
2022/06/10 11:48:34;;;;;;;19.30;3.70;;;;;;;23.23;53.09;102056.78;4744785;30;20060;-76